sensor_id;sensor_type;location;lat;lon;timestamp;pressure;altitude;pressure_sealevel;temperature;humidity
27294;BME280;14785;52.556;13.430;2023-07-20T00:00:12;100263.09;;;18.28;100.00
27294;BME280;14785;52.556;13.430;2023-07-20T00:02:39;100268.03;;;17.94;100.00
27294;BME280;14785;52.556;13.430;2023-07-20T00:05:05;100258.97;;;17.88;100.00
27294;BME280;14785;52.556;13.430;2023-07-20T00:07:31;100264.28;;;18.01;100.00
27294;BME280;14785;52.556;13.430;2023-07-20T00:09:56;100265.50;;;18.05;100.00
27294;BME280;14785;52.556;13.430;2023-07-20T00:12:22;100275.56;;;17.72;100.00
27294;BME280;14785;52.556;13.430;2023-07-20T00:14:48;100284.03;;;17.82;100.00
27294;BME280;14785;52.556;13.430;2023-07-20T00:17:13;100268.53;;;17.71;100.00
27294;BME280;14785;52.556;13.430;2023-07-20T00:19:38;100271.41;;;17.76;100.00
27294;BME280;14785;52.556;13.430;2023-07-20T00:22:04;100269.41;;;17.52;100.00
27294;BME280;14785;52.556;13.430;2023-07-20T00:24:30;100274.78;;;17.52;100.00
27294;BME280;14785;52.556;13.430;2023-07-20T00:26:56;100274.50;;;17.80;100.00
27294;BME280;14785;52.556;13.430;2023-07-20T00:29:21;100277.44;;;17.59;100.00
27294;BME280;14785;52.556;13.430;2023-07-20T00:31:49;100288.41;;;17.57;100.00
27294;BME280;14785;52.556;13.430;2023-07-20T00:34:15;100280.56;;;17.56;100.00
27294;BME280;14785;52.556;13.430;2023-07-20T00:36:40;100284.75;;;17.45;100.00
27294;BME280;14785;52.556;13.430;2023-07-20T00:39:06;100289.66;;;17.35;100.00
27294;BME280;14785;52.556;13.430;2023-07-20T00:41:31;100296.09;;;17.34;100.00
27294;BME280;14785;52.556;13.430;2023-07-20T00:43:58;100296.91;;;17.41;100.00
27294;BME280;14785;52.556;13.430;2023-07-20T00:46:24;100284.03;;;17.69;100.00
27294;BME280;14785;52.556;13.430;2023-07-20T00:48:50;100286.72;;;17.82;100.00
27294;BME280;14785;52.556;13.430;2023-07-20T00:51:16;100293.63;;;17.52;100.00
27294;BME280;14785;52.556;13.430;2023-07-20T00:53:42;100298.41;;;17.24;100.00
27294;BME280;14785;52.556;13.430;2023-07-20T00:56:07;100289.28;;;17.18;100.00
27294;BME280;14785;52.556;13.430;2023-07-20T00:58:34;100287.00;;;17.22;100.00
27294;BME280;14785;52.556;13.430;2023-07-20T01:01:00;100298.41;;;17.24;100.00
27294;BME280;14785;52.556;13.430;2023-07-20T01:03:25;100283.69;;;17.46;100.00
27294;BME280;14785;52.556;13.430;2023-07-20T01:06:10;100295.06;;;17.35;100.00
27294;BME280;14785;52.556;13.430;2023-07-20T01:08:46;100296.31;;;17.39;100.00
27294;BME280;14785;52.556;13.430;2023-07-20T01:11:16;100291.75;;;17.20;100.00
27294;BME280;14785;52.556;13.430;2023-07-20T01:13:47;100287.84;;;17.16;100.00
27294;BME280;14785;52.556;13.430;2023-07-20T01:16:12;100297.78;;;17.09;100.00
27294;BME280;14785;52.556;13.430;2023-07-20T01:18:38;100295.69;;;17.24;100.00
27294;BME280;14785;52.556;13.430;2023-07-20T01:21:07;100282.47;;;17.16;100.00
27294;BME280;14785;52.556;13.430;2023-07-20T01:29:29;100291.75;;;17.20;100.00
27294;BME280;14785;52.556;13.430;2023-07-20T01:32:02;100297.97;;;17.14;100.00
27294;BME280;14785;52.556;13.430;2023-07-20T01:34:29;100292.19;;;17.04;100.00
27294;BME280;14785;52.556;13.430;2023-07-20T01:36:55;100289.28;;;17.12;100.00
27294;BME280;14785;52.556;13.430;2023-07-20T01:39:21;100298.38;;;17.17;100.00
27294;BME280;14785;52.556;13.430;2023-07-20T01:41:47;100295.50;;;17.26;100.00
27294;BME280;14785;52.556;13.430;2023-07-20T01:44:13;100291.16;;;17.18;100.00
27294;BME280;14785;52.556;13.430;2023-07-20T01:46:38;100299.41;;;17.23;100.00
27294;BME280;14785;52.556;13.430;2023-07-20T01:49:04;100311.00;;;17.04;100.00
27294;BME280;14785;52.556;13.430;2023-07-20T01:51:29;100296.72;;;17.10;100.00
27294;BME280;14785;52.556;13.430;2023-07-20T01:53:54;100293.81;;;17.05;100.00
27294;BME280;14785;52.556;13.430;2023-07-20T01:56:20;100299.22;;;17.18;100.00
27294;BME280;14785;52.556;13.430;2023-07-20T01:58:46;100291.31;;;17.62;100.00
27294;BME280;14785;52.556;13.430;2023-07-20T02:01:11;100287.19;;;17.53;100.00
27294;BME280;14785;52.556;13.430;2023-07-20T02:03:36;100290.91;;;17.26;100.00
27294;BME280;14785;52.556;13.430;2023-07-20T02:06:02;100297.75;;;17.61;100.00
27294;BME280;14785;52.556;13.430;2023-07-20T02:08:27;100295.06;;;17.42;100.00
27294;BME280;14785;52.556;13.430;2023-07-20T02:10:53;100288.97;;;17.85;100.00
27294;BME280;14785;52.556;13.430;2023-07-20T02:13:18;100299.53;;;17.87;100.00
27294;BME280;14785;52.556;13.430;2023-07-20T02:15:43;100297.56;;;17.30;100.00
27294;BME280;14785;52.556;13.430;2023-07-20T02:18:09;100299.81;;;17.20;100.00
27294;BME280;14785;52.556;13.430;2023-07-20T02:20:35;100291.75;;;17.27;100.00
27294;BME280;14785;52.556;13.430;2023-07-20T02:23:00;100297.91;;;17.66;100.00
27294;BME280;14785;52.556;13.430;2023-07-20T02:25:26;100308.09;;;16.99;100.00
27294;BME280;14785;52.556;13.430;2023-07-20T02:27:52;100303.34;;;17.01;100.00
27294;BME280;14785;52.556;13.430;2023-07-20T02:30:17;100311.16;;;16.70;100.00
27294;BME280;14785;52.556;13.430;2023-07-20T02:32:43;100308.31;;;17.04;100.00
27294;BME280;14785;52.556;13.430;2023-07-20T02:35:14;100297.13;;;17.27;100.00
27294;BME280;14785;52.556;13.430;2023-07-20T02:37:39;100286.81;;;17.30;100.00
27294;BME280;14785;52.556;13.430;2023-07-20T02:40:05;100292.19;;;17.43;100.00
27294;BME280;14785;52.556;13.430;2023-07-20T02:42:32;100287.16;;;17.66;100.00
27294;BME280;14785;52.556;13.430;2023-07-20T02:44:57;100285.13;;;17.36;100.00
27294;BME280;14785;52.556;13.430;2023-07-20T02:47:23;100286.78;;;17.56;100.00
27294;BME280;14785;52.556;13.430;2023-07-20T02:49:48;100293.00;;;17.50;100.00
27294;BME280;14785;52.556;13.430;2023-07-20T02:52:14;100297.53;;;16.65;100.00
27294;BME280;14785;52.556;13.430;2023-07-20T02:54:39;100284.91;;;16.59;100.00
27294;BME280;14785;52.556;13.430;2023-07-20T02:57:05;100323.53;;;16.58;100.00
27294;BME280;14785;52.556;13.430;2023-07-20T02:59:30;100322.59;;;16.25;100.00
27294;BME280;14785;52.556;13.430;2023-07-20T03:01:56;100308.84;;;16.54;100.00
27294;BME280;14785;52.556;13.430;2023-07-20T03:04:22;100320.84;;;16.58;100.00
27294;BME280;14785;52.556;13.430;2023-07-20T03:06:49;100334.63;;;16.42;100.00
27294;BME280;14785;52.556;13.430;2023-07-20T03:09:14;100326.84;;;16.66;100.00
27294;BME280;14785;52.556;13.430;2023-07-20T03:11:40;100325.22;;;16.72;100.00
27294;BME280;14785;52.556;13.430;2023-07-20T03:14:06;100325.47;;;17.03;100.00
27294;BME280;14785;52.556;13.430;2023-07-20T03:16:31;100328.94;;;16.84;100.00
27294;BME280;14785;52.556;13.430;2023-07-20T03:19:00;100325.22;;;16.91;100.00
27294;BME280;14785;52.556;13.430;2023-07-20T03:21:29;100328.16;;;17.16;100.00
27294;BME280;14785;52.556;13.430;2023-07-20T03:23:54;100324.84;;;17.27;100.00
27294;BME280;14785;52.556;13.430;2023-07-20T03:26:20;100324.03;;;17.13;100.00
27294;BME280;14785;52.556;13.430;2023-07-20T03:28:45;100320.69;;;17.05;100.00
27294;BME280;14785;52.556;13.430;2023-07-20T03:31:11;100329.38;;;16.87;100.00
27294;BME280;14785;52.556;13.430;2023-07-20T03:33:36;100330.63;;;17.17;100.00
27294;BME280;14785;52.556;13.430;2023-07-20T03:36:02;100334.34;;;17.62;100.00
27294;BME280;14785;52.556;13.430;2023-07-20T03:38:27;100336.03;;;17.44;100.00
27294;BME280;14785;52.556;13.430;2023-07-20T03:40:57;100341.78;;;17.08;100.00
27294;BME280;14785;52.556;13.430;2023-07-20T03:43:23;100335.59;;;17.27;100.00
27294;BME280;14785;52.556;13.430;2023-07-20T03:45:49;100336.41;;;17.60;100.00
27294;BME280;14785;52.556;13.430;2023-07-20T03:48:19;100335.19;;;17.30;100.00
27294;BME280;14785;52.556;13.430;2023-07-20T03:50:46;100329.16;;;17.41;100.00
27294;BME280;14785;52.556;13.430;2023-07-20T03:53:12;100332.03;;;16.81;100.00
27294;BME280;14785;52.556;13.430;2023-07-20T03:55:38;100334.53;;;16.89;100.00
27294;BME280;14785;52.556;13.430;2023-07-20T03:58:06;100338.06;;;16.96;100.00
27294;BME280;14785;52.556;13.430;2023-07-20T04:00:31;100347.91;;;16.63;100.00
27294;BME280;14785;52.556;13.430;2023-07-20T04:02:56;100350.28;;;17.11;100.00
27294;BME280;14785;52.556;13.430;2023-07-20T04:05:22;100346.25;;;16.62;100.00
27294;BME280;14785;52.556;13.430;2023-07-20T04:07:47;100351.28;;;16.91;100.00
27294;BME280;14785;52.556;13.430;2023-07-20T04:10:13;100352.13;;;17.11;100.00
27294;BME280;14785;52.556;13.430;2023-07-20T04:12:38;100351.94;;;17.19;100.00
27294;BME280;14785;52.556;13.430;2023-07-20T04:15:04;100351.94;;;17.58;100.00
27294;BME280;14785;52.556;13.430;2023-07-20T04:17:29;100349.59;;;17.94;100.00
27294;BME280;14785;52.556;13.430;2023-07-20T04:19:55;100339.69;;;17.82;100.00
27294;BME280;14785;52.556;13.430;2023-07-20T04:22:20;100344.69;;;17.06;100.00
27294;BME280;14785;52.556;13.430;2023-07-20T04:24:46;100360.19;;;16.38;100.00
27294;BME280;14785;52.556;13.430;2023-07-20T04:27:12;100351.09;;;16.92;100.00
27294;BME280;14785;52.556;13.430;2023-07-20T04:29:37;100346.75;;;17.17;100.00
27294;BME280;14785;52.556;13.430;2023-07-20T04:32:03;100350.47;;;17.03;100.00
27294;BME280;14785;52.556;13.430;2023-07-20T04:34:28;100353.78;;;17.25;100.00
27294;BME280;14785;52.556;13.430;2023-07-20T04:36:54;100346.78;;;17.50;100.00
27294;BME280;14785;52.556;13.430;2023-07-20T04:39:19;100364.31;;;16.94;100.00
27294;BME280;14785;52.556;13.430;2023-07-20T04:41:44;100359.59;;;17.29;100.00
27294;BME280;14785;52.556;13.430;2023-07-20T04:44:10;100357.09;;;17.21;100.00
27294;BME280;14785;52.556;13.430;2023-07-20T04:46:35;100352.13;;;17.37;100.00
27294;BME280;14785;52.556;13.430;2023-07-20T04:49:01;100350.03;;;17.78;100.00
27294;BME280;14785;52.556;13.430;2023-07-20T04:51:27;100352.69;;;17.98;100.00
27294;BME280;14785;52.556;13.430;2023-07-20T04:53:55;100350.47;;;17.75;100.00
27294;BME280;14785;52.556;13.430;2023-07-20T04:56:21;100354.56;;;17.97;100.00
27294;BME280;14785;52.556;13.430;2023-07-20T04:58:48;100352.56;;;17.47;100.00
27294;BME280;14785;52.556;13.430;2023-07-20T05:01:14;100360.84;;;17.52;100.00
27294;BME280;14785;52.556;13.430;2023-07-20T05:03:39;100357.09;;;17.21;100.00
27294;BME280;14785;52.556;13.430;2023-07-20T05:06:04;100358.31;;;17.77;100.00
27294;BME280;14785;52.556;13.430;2023-07-20T05:08:30;100356.91;;;17.48;100.00
27294;BME280;14785;52.556;13.430;2023-07-20T05:10:55;100360.00;;;17.65;100.00
27294;BME280;14785;52.556;13.430;2023-07-20T05:13:20;100362.06;;;17.17;100.00
27294;BME280;14785;52.556;13.430;2023-07-20T05:15:46;100352.94;;;17.83;100.00
27294;BME280;14785;52.556;13.430;2023-07-20T05:18:11;100355.66;;;18.40;100.00
27294;BME280;14785;52.556;13.430;2023-07-20T05:20:37;100361.16;;;18.01;100.00
27294;BME280;14785;52.556;13.430;2023-07-20T05:23:03;100352.50;;;17.86;100.00
27294;BME280;14785;52.556;13.430;2023-07-20T05:25:28;100351.72;;;17.73;100.00
27294;BME280;14785;52.556;13.430;2023-07-20T05:27:53;100361.66;;;17.59;100.00
27294;BME280;14785;52.556;13.430;2023-07-20T05:30:20;100355.69;;;17.44;100.00
27294;BME280;14785;52.556;13.430;2023-07-20T05:32:46;100364.31;;;17.85;100.00
27294;BME280;14785;52.556;13.430;2023-07-20T05:35:19;100354.19;;;17.74;100.00
27294;BME280;14785;52.556;13.430;2023-07-20T05:37:45;100356.25;;;17.72;100.00
27294;BME280;14785;52.556;13.430;2023-07-20T05:40:11;100355.00;;;17.94;100.00
27294;BME280;14785;52.556;13.430;2023-07-20T05:42:37;100348.38;;;17.77;100.00
27294;BME280;14785;52.556;13.430;2023-07-20T05:45:03;100347.91;;;18.06;100.00
27294;BME280;14785;52.556;13.430;2023-07-20T05:47:28;100349.97;;;18.04;100.00
27294;BME280;14785;52.556;13.430;2023-07-20T05:49:54;100349.34;;;18.02;100.00
27294;BME280;14785;52.556;13.430;2023-07-20T05:52:19;100355.19;;;17.80;100.00
27294;BME280;14785;52.556;13.430;2023-07-20T05:54:45;100357.91;;;17.86;100.00
27294;BME280;14785;52.556;13.430;2023-07-20T05:57:10;100349.69;;;18.25;100.00
27294;BME280;14785;52.556;13.430;2023-07-20T05:59:36;100362.09;;;17.63;100.00
27294;BME280;14785;52.556;13.430;2023-07-20T06:02:03;100357.09;;;17.66;100.00
27294;BME280;14785;52.556;13.430;2023-07-20T06:04:29;100349.59;;;17.94;100.00
27294;BME280;14785;52.556;13.430;2023-07-20T06:06:54;100349.03;;;18.36;100.00
27294;BME280;14785;52.556;13.430;2023-07-20T06:09:20;100354.44;;;18.36;100.00
27294;BME280;14785;52.556;13.430;2023-07-20T06:11:45;100362.47;;;17.66;100.00
27294;BME280;14785;52.556;13.430;2023-07-20T06:14:10;100358.63;;;18.19;100.00
27294;BME280;14785;52.556;13.430;2023-07-20T06:16:36;100357.19;;;18.10;100.00
27294;BME280;14785;52.556;13.430;2023-07-20T06:19:01;100362.31;;;18.31;100.00
27294;BME280;14785;52.556;13.430;2023-07-20T06:21:27;100358.06;;;18.61;100.00
27294;BME280;14785;52.556;13.430;2023-07-20T06:23:52;100376.94;;;17.91;100.00
27294;BME280;14785;52.556;13.430;2023-07-20T06:26:17;100370.72;;;17.84;100.00
27294;BME280;14785;52.556;13.430;2023-07-20T06:28:43;100372.41;;;17.72;100.00
27294;BME280;14785;52.556;13.430;2023-07-20T06:31:08;100368.63;;;17.99;100.00
27294;BME280;14785;52.556;13.430;2023-07-20T06:33:34;100375.56;;;18.26;100.00
27294;BME280;14785;52.556;13.430;2023-07-20T06:36:02;100387.06;;;17.96;100.00
27294;BME280;14785;52.556;13.430;2023-07-20T06:38:28;100377.78;;;17.72;100.00
27294;BME280;14785;52.556;13.430;2023-07-20T06:40:54;100371.94;;;18.01;100.00
27294;BME280;14785;52.556;13.430;2023-07-20T06:43:20;100365.28;;;18.10;100.00
27294;BME280;14785;52.556;13.430;2023-07-20T06:45:51;100376.03;;;18.17;100.00
27294;BME280;14785;52.556;13.430;2023-07-20T06:48:17;100373.22;;;17.79;100.00
27294;BME280;14785;52.556;13.430;2023-07-20T06:50:42;100380.69;;;17.64;100.00
27294;BME280;14785;52.556;13.430;2023-07-20T06:53:08;100384.81;;;17.41;100.00
27294;BME280;14785;52.556;13.430;2023-07-20T06:55:33;100375.69;;;17.87;100.00
27294;BME280;14785;52.556;13.430;2023-07-20T06:57:59;100396.38;;;17.93;100.00
27294;BME280;14785;52.556;13.430;2023-07-20T07:00:24;100372.66;;;18.34;100.00
27294;BME280;14785;52.556;13.430;2023-07-20T07:02:49;100391.13;;;18.24;100.00
27294;BME280;14785;52.556;13.430;2023-07-20T07:05:15;100379.56;;;18.68;100.00
27294;BME280;14785;52.556;13.430;2023-07-20T07:07:41;100372.38;;;18.93;100.00
27294;BME280;14785;52.556;13.430;2023-07-20T07:10:07;100365.22;;;18.23;100.00
27294;BME280;14785;52.556;13.430;2023-07-20T07:12:33;100370.25;;;19.02;100.00
27294;BME280;14785;52.556;13.430;2023-07-20T07:14:59;100372.41;;;18.86;100.00
27294;BME280;14785;52.556;13.430;2023-07-20T07:17:25;100367.53;;;18.13;100.00
27294;BME280;14785;52.556;13.430;2023-07-20T07:19:52;100365.19;;;18.36;100.00
27294;BME280;14785;52.556;13.430;2023-07-20T07:22:20;100373.91;;;18.32;100.00
27294;BME280;14785;52.556;13.430;2023-07-20T07:24:46;100381.06;;;18.57;100.00
27294;BME280;14785;52.556;13.430;2023-07-20T07:27:11;100387.81;;;18.16;100.00
27294;BME280;14785;52.556;13.430;2023-07-20T07:29:37;100384.88;;;18.37;100.00
27294;BME280;14785;52.556;13.430;2023-07-20T07:32:03;100386.75;;;18.36;100.00
27294;BME280;14785;52.556;13.430;2023-07-20T07:34:28;100380.53;;;18.42;100.00
27294;BME280;14785;52.556;13.430;2023-07-20T07:36:54;100385.97;;;19.05;100.00
27294;BME280;14785;52.556;13.430;2023-07-20T07:39:19;100370.38;;;19.62;100.00
27294;BME280;14785;52.556;13.430;2023-07-20T07:41:45;100378.69;;;19.43;100.00
27294;BME280;14785;52.556;13.430;2023-07-20T07:44:10;100380.03;;;19.52;100.00
27294;BME280;14785;52.556;13.430;2023-07-20T07:46:37;100370.97;;;19.15;100.00
27294;BME280;14785;52.556;13.430;2023-07-20T07:49:02;100374.19;;;19.55;100.00
27294;BME280;14785;52.556;13.430;2023-07-20T07:51:28;100376.13;;;19.48;100.00
27294;BME280;14785;52.556;13.430;2023-07-20T07:53:53;100386.28;;;19.28;100.00
27294;BME280;14785;52.556;13.430;2023-07-20T07:56:19;100377.00;;;19.42;100.00
27294;BME280;14785;52.556;13.430;2023-07-20T07:58:48;100385.53;;;18.76;100.00
27294;BME280;14785;52.556;13.430;2023-07-20T08:01:14;100383.03;;;18.37;100.00
27294;BME280;14785;52.556;13.430;2023-07-20T08:03:39;100379.19;;;19.27;100.00
27294;BME280;14785;52.556;13.430;2023-07-20T08:06:05;100381.31;;;19.74;100.00
27294;BME280;14785;52.556;13.430;2023-07-20T08:08:32;100380.78;;;19.83;100.00
27294;BME280;14785;52.556;13.430;2023-07-20T08:10:58;100379.69;;;20.27;100.00
27294;BME280;14785;52.556;13.430;2023-07-20T08:13:24;100404.97;;;18.85;100.00
27294;BME280;14785;52.556;13.430;2023-07-20T08:15:51;100398.91;;;18.96;100.00
27294;BME280;14785;52.556;13.430;2023-07-20T08:18:19;100391.22;;;19.31;100.00
27294;BME280;14785;52.556;13.430;2023-07-20T08:20:45;100392.94;;;19.50;100.00
27294;BME280;14785;52.556;13.430;2023-07-20T08:23:10;100391.13;;;19.44;100.00
27294;BME280;14785;52.556;13.430;2023-07-20T08:25:36;100397.84;;;19.77;100.00
27294;BME280;14785;52.556;13.430;2023-07-20T08:28:04;100392.31;;;20.33;100.00
27294;BME280;14785;52.556;13.430;2023-07-20T08:30:48;100402.94;;;20.10;100.00
27294;BME280;14785;52.556;13.430;2023-07-20T08:33:15;100405.94;;;20.02;100.00
27294;BME280;14785;52.556;13.430;2023-07-20T08:35:41;100411.72;;;20.05;100.00
27294;BME280;14785;52.556;13.430;2023-07-20T08:38:07;100415.19;;;19.88;100.00
27294;BME280;14785;52.556;13.430;2023-07-20T08:40:45;100403.78;;;20.28;100.00
27294;BME280;14785;52.556;13.430;2023-07-20T08:43:12;100411.03;;;20.10;100.00
27294;BME280;14785;52.556;13.430;2023-07-20T08:45:38;100404.09;;;19.53;100.00
27294;BME280;14785;52.556;13.430;2023-07-20T08:48:05;100399.06;;;19.01;100.00
27294;BME280;14785;52.556;13.430;2023-07-20T08:50:31;100397.97;;;19.09;100.00
27294;BME280;14785;52.556;13.430;2023-07-20T08:52:57;100402.13;;;19.11;100.00
27294;BME280;14785;52.556;13.430;2023-07-20T08:55:24;100398.81;;;19.40;100.00
27294;BME280;14785;52.556;13.430;2023-07-20T08:57:53;100403.72;;;19.19;100.00
27294;BME280;14785;52.556;13.430;2023-07-20T09:00:20;100401.06;;;19.43;100.00
27294;BME280;14785;52.556;13.430;2023-07-20T09:02:48;100396.78;;;19.60;100.00
27294;BME280;14785;52.556;13.430;2023-07-20T09:05:14;100391.72;;;20.49;100.00
27294;BME280;14785;52.556;13.430;2023-07-20T09:07:40;100402.69;;;20.65;100.00
27294;BME280;14785;52.556;13.430;2023-07-20T09:10:06;100407.25;;;20.35;100.00
27294;BME280;14785;52.556;13.430;2023-07-20T09:12:34;100395.91;;;20.45;100.00
27294;BME280;14785;52.556;13.430;2023-07-20T09:15:00;100404.69;;;20.88;100.00
27294;BME280;14785;52.556;13.430;2023-07-20T09:17:26;100402.09;;;21.64;100.00
27294;BME280;14785;52.556;13.430;2023-07-20T09:19:52;100400.31;;;20.57;100.00
27294;BME280;14785;52.556;13.430;2023-07-20T09:22:17;100387.75;;;20.93;100.00
27294;BME280;14785;52.556;13.430;2023-07-20T09:24:43;100398.91;;;21.55;100.00
27294;BME280;14785;52.556;13.430;2023-07-20T09:27:09;100400.53;;;21.04;100.00
27294;BME280;14785;52.556;13.430;2023-07-20T09:29:50;100391.59;;;21.44;100.00
27294;BME280;14785;52.556;13.430;2023-07-20T09:32:20;100399.63;;;21.62;100.00
27294;BME280;14785;52.556;13.430;2023-07-20T09:34:46;100395.13;;;21.68;100.00
27294;BME280;14785;52.556;13.430;2023-07-20T09:37:12;100410.28;;;21.05;100.00
27294;BME280;14785;52.556;13.430;2023-07-20T09:39:44;100414.06;;;20.56;100.00
27294;BME280;14785;52.556;13.430;2023-07-20T09:42:12;100411.16;;;20.21;100.00
27294;BME280;14785;52.556;13.430;2023-07-20T09:44:38;100412.16;;;20.02;100.00
27294;BME280;14785;52.556;13.430;2023-07-20T09:47:04;100409.72;;;20.37;100.00
27294;BME280;14785;52.556;13.430;2023-07-20T09:49:30;100414.69;;;20.40;100.00
27294;BME280;14785;52.556;13.430;2023-07-20T09:51:57;100421.66;;;20.29;100.00
27294;BME280;14785;52.556;13.430;2023-07-20T09:54:23;100433.50;;;20.28;100.00
27294;BME280;14785;52.556;13.430;2023-07-20T09:56:50;100419.31;;;20.33;100.00
27294;BME280;14785;52.556;13.430;2023-07-20T09:59:16;100422.63;;;20.17;100.00
27294;BME280;14785;52.556;13.430;2023-07-20T10:01:43;100418.56;;;20.62;100.00
27294;BME280;14785;52.556;13.430;2023-07-20T10:04:11;100442.13;;;19.94;100.00
27294;BME280;14785;52.556;13.430;2023-07-20T10:06:41;100429.63;;;20.00;100.00
27294;BME280;14785;52.556;13.430;2023-07-20T10:09:09;100437.31;;;20.21;100.00
27294;BME280;14785;52.556;13.430;2023-07-20T10:11:36;100438.53;;;20.00;100.00
27294;BME280;14785;52.556;13.430;2023-07-20T10:14:04;100449.13;;;20.26;100.00
27294;BME280;14785;52.556;13.430;2023-07-20T10:16:34;100435.28;;;19.74;100.00
27294;BME280;14785;52.556;13.430;2023-07-20T10:21:40;100439.91;;;19.05;100.00
27294;BME280;14785;52.556;13.430;2023-07-20T10:24:05;100453.38;;;19.05;100.00
27294;BME280;14785;52.556;13.430;2023-07-20T10:26:32;100428.16;;;19.24;100.00
27294;BME280;14785;52.556;13.430;2023-07-20T10:28:59;100432.44;;;19.07;100.00
27294;BME280;14785;52.556;13.430;2023-07-20T10:31:25;100430.75;;;19.68;100.00
27294;BME280;14785;52.556;13.430;2023-07-20T10:33:56;100431.13;;;19.71;100.00
27294;BME280;14785;52.556;13.430;2023-07-20T10:36:26;100431.56;;;19.13;100.00
27294;BME280;14785;52.556;13.430;2023-07-20T10:38:55;100421.84;;;19.43;100.00
27294;BME280;14785;52.556;13.430;2023-07-20T10:41:35;100426.88;;;19.82;100.00
27294;BME280;14785;52.556;13.430;2023-07-20T10:44:07;100430.13;;;20.33;100.00
27294;BME280;14785;52.556;13.430;2023-07-20T10:49:06;100433.47;;;19.68;100.00
27294;BME280;14785;52.556;13.430;2023-07-20T10:51:44;100428.47;;;20.32;100.00
27294;BME280;14785;52.556;13.430;2023-07-20T10:56:44;100431.16;;;20.14;100.00
27294;BME280;14785;52.556;13.430;2023-07-20T10:59:20;100430.66;;;19.99;100.00
27294;BME280;14785;52.556;13.430;2023-07-20T11:01:46;100423.53;;;19.37;100.00
27294;BME280;14785;52.556;13.430;2023-07-20T11:04:12;100432.28;;;19.82;100.00
27294;BME280;14785;52.556;13.430;2023-07-20T11:06:42;100429.00;;;19.80;100.00
27294;BME280;14785;52.556;13.430;2023-07-20T11:09:12;100442.81;;;19.90;100.00
27294;BME280;14785;52.556;13.430;2023-07-20T11:14:24;100443.63;;;20.15;100.00
27294;BME280;14785;52.556;13.430;2023-07-20T11:16:51;100422.03;;;20.33;100.00
27294;BME280;14785;52.556;13.430;2023-07-20T11:19:25;100426.00;;;20.48;100.00
27294;BME280;14785;52.556;13.430;2023-07-20T11:21:53;100447.34;;;20.38;100.00
27294;BME280;14785;52.556;13.430;2023-07-20T11:24:19;100421.84;;;20.64;100.00
27294;BME280;14785;52.556;13.430;2023-07-20T11:26:48;100409.72;;;21.03;100.00
27294;BME280;14785;52.556;13.430;2023-07-20T11:29:19;100421.75;;;20.89;100.00
27294;BME280;14785;52.556;13.430;2023-07-20T11:31:45;100437.78;;;20.54;100.00
27294;BME280;14785;52.556;13.430;2023-07-20T11:34:11;100424.97;;;20.97;100.00
27294;BME280;14785;52.556;13.430;2023-07-20T11:36:41;100421.34;;;21.44;100.00
27294;BME280;14785;52.556;13.430;2023-07-20T11:39:12;100438.97;;;20.58;100.00
27294;BME280;14785;52.556;13.430;2023-07-20T11:41:38;100425.44;;;21.99;100.00
27294;BME280;14785;52.556;13.430;2023-07-20T11:44:05;100419.25;;;21.05;100.00
27294;BME280;14785;52.556;13.430;2023-07-20T11:46:33;100426.75;;;21.03;100.00
27294;BME280;14785;52.556;13.430;2023-07-20T11:48:59;100424.84;;;21.33;100.00
27294;BME280;14785;52.556;13.430;2023-07-20T11:51:27;100434.28;;;21.01;100.00
27294;BME280;14785;52.556;13.430;2023-07-20T11:53:53;100424.41;;;20.77;100.00
27294;BME280;14785;52.556;13.430;2023-07-20T11:56:18;100420.63;;;20.78;100.00
27294;BME280;14785;52.556;13.430;2023-07-20T11:58:44;100421.13;;;20.87;100.00
27294;BME280;14785;52.556;13.430;2023-07-20T12:01:12;100434.91;;;20.67;100.00
27294;BME280;14785;52.556;13.430;2023-07-20T12:03:38;100422.16;;;20.74;100.00
27294;BME280;14785;52.556;13.430;2023-07-20T12:06:10;100443.50;;;20.46;100.00
27294;BME280;14785;52.556;13.430;2023-07-20T12:08:41;100441.00;;;19.84;100.00
27294;BME280;14785;52.556;13.430;2023-07-20T12:11:07;100437.66;;;19.82;100.00
27294;BME280;14785;52.556;13.430;2023-07-20T12:13:43;100457.41;;;20.07;100.00
27294;BME280;14785;52.556;13.430;2023-07-20T12:16:14;100436.28;;;19.97;100.00
27294;BME280;14785;52.556;13.430;2023-07-20T12:18:43;100445.75;;;20.31;100.00
27294;BME280;14785;52.556;13.430;2023-07-20T12:21:09;100444.91;;;20.06;100.00
27294;BME280;14785;52.556;13.430;2023-07-20T12:23:37;100435.63;;;20.26;100.00
27294;BME280;14785;52.556;13.430;2023-07-20T12:26:06;100432.38;;;20.54;100.00
27294;BME280;14785;52.556;13.430;2023-07-20T12:28:31;100446.38;;;19.84;100.00
27294;BME280;14785;52.556;13.430;2023-07-20T12:30:57;100441.81;;;20.63;100.00
27294;BME280;14785;52.556;13.430;2023-07-20T12:33:22;100445.13;;;20.29;100.00
27294;BME280;14785;52.556;13.430;2023-07-20T12:35:49;100440.91;;;21.46;100.00
27294;BME280;14785;52.556;13.430;2023-07-20T12:38:15;100447.94;;;22.00;100.00
27294;BME280;14785;52.556;13.430;2023-07-20T12:40:41;100450.16;;;20.61;100.00
27294;BME280;14785;52.556;13.430;2023-07-20T12:43:06;100438.66;;;21.43;100.00